sensor_id;sensor_type;location;lat;lon;timestamp;P1;durP1;ratioP1;P2;durP2;ratioP2
46415;SDS011;32620;51.704;7.822;2023-08-08T00:00:04;10.20;;;5.85;;
46415;SDS011;32620;51.704;7.822;2023-08-08T00:02:30;9.27;;;6.20;;
46415;SDS011;32620;51.704;7.822;2023-08-08T00:04:56;12.30;;;5.88;;
46415;SDS011;32620;51.704;7.822;2023-08-08T00:07:21;10.38;;;6.22;;
46415;SDS011;32620;51.704;7.822;2023-08-08T00:09:47;12.00;;;6.65;;
46415;SDS011;32620;51.704;7.822;2023-08-08T00:12:12;14.23;;;7.10;;
46415;SDS011;32620;51.704;7.822;2023-08-08T00:14:38;13.20;;;6.85;;
46415;SDS011;32620;51.704;7.822;2023-08-08T00:17:03;13.63;;;6.07;;
46415;SDS011;32620;51.704;7.822;2023-08-08T00:19:29;12.02;;;6.82;;
46415;SDS011;32620;51.704;7.822;2023-08-08T00:21:54;11.85;;;6.68;;
46415;SDS011;32620;51.704;7.822;2023-08-08T00:24:20;13.60;;;7.35;;
46415;SDS011;32620;51.704;7.822;2023-08-08T00:26:45;13.90;;;7.38;;
46415;SDS011;32620;51.704;7.822;2023-08-08T00:29:11;9.30;;;6.53;;
46415;SDS011;32620;51.704;7.822;2023-08-08T00:31:36;11.65;;;6.68;;
46415;SDS011;32620;51.704;7.822;2023-08-08T00:34:02;10.38;;;6.40;;
46415;SDS011;32620;51.704;7.822;2023-08-08T00:36:27;14.77;;;7.30;;
46415;SDS011;32620;51.704;7.822;2023-08-08T00:38:53;12.88;;;6.80;;
46415;SDS011;32620;51.704;7.822;2023-08-08T00:41:18;15.77;;;6.78;;
46415;SDS011;32620;51.704;7.822;2023-08-08T00:43:44;9.70;;;5.43;;
46415;SDS011;32620;51.704;7.822;2023-08-08T00:46:10;12.63;;;5.75;;
46415;SDS011;32620;51.704;7.822;2023-08-08T00:48:36;12.50;;;5.25;;
46415;SDS011;32620;51.704;7.822;2023-08-08T00:51:02;8.45;;;5.35;;
46415;SDS011;32620;51.704;7.822;2023-08-08T00:53:28;8.75;;;4.82;;
46415;SDS011;32620;51.704;7.822;2023-08-08T00:55:56;8.77;;;4.75;;
46415;SDS011;32620;51.704;7.822;2023-08-08T00:58:23;10.13;;;5.45;;
46415;SDS011;32620;51.704;7.822;2023-08-08T01:00:48;12.68;;;5.82;;
46415;SDS011;32620;51.704;7.822;2023-08-08T01:03:14;10.52;;;5.50;;
46415;SDS011;32620;51.704;7.822;2023-08-08T01:06:13;14.73;;;6.65;;
46415;SDS011;32620;51.704;7.822;2023-08-08T01:08:31;14.88;;;7.88;;
46415;SDS011;32620;51.704;7.822;2023-08-08T01:11:04;20.02;;;9.50;;
46415;SDS011;32620;51.704;7.822;2023-08-08T01:13:31;13.43;;;8.23;;
46415;SDS011;32620;51.704;7.822;2023-08-08T01:15:57;10.75;;;8.10;;
46415;SDS011;32620;51.704;7.822;2023-08-08T01:18:24;11.18;;;7.68;;
46415;SDS011;32620;51.704;7.822;2023-08-08T01:20:51;10.73;;;7.50;;
46415;SDS011;32620;51.704;7.822;2023-08-08T01:23:19;12.55;;;7.90;;
46415;SDS011;32620;51.704;7.822;2023-08-08T01:25:53;11.60;;;7.85;;
46415;SDS011;32620;51.704;7.822;2023-08-08T01:28:21;13.32;;;7.35;;
46415;SDS011;32620;51.704;7.822;2023-08-08T01:30:48;11.85;;;7.07;;
46415;SDS011;32620;51.704;7.822;2023-08-08T01:33:14;11.98;;;7.20;;
46415;SDS011;32620;51.704;7.822;2023-08-08T01:35:42;10.73;;;7.07;;
46415;SDS011;32620;51.704;7.822;2023-08-08T01:38:12;7.15;;;4.80;;
46415;SDS011;32620;51.704;7.822;2023-08-08T01:40:44;9.07;;;4.03;;
46415;SDS011;32620;51.704;7.822;2023-08-08T01:43:11;4.88;;;3.63;;
46415;SDS011;32620;51.704;7.822;2023-08-08T01:45:38;4.82;;;4.00;;
46415;SDS011;32620;51.704;7.822;2023-08-08T01:48:06;7.20;;;4.35;;
46415;SDS011;32620;51.704;7.822;2023-08-08T01:50:33;7.25;;;5.32;;
46415;SDS011;32620;51.704;7.822;2023-08-08T01:52:59;9.95;;;6.32;;
46415;SDS011;32620;51.704;7.822;2023-08-08T01:55:24;13.00;;;7.15;;
46415;SDS011;32620;51.704;7.822;2023-08-08T01:57:50;10.68;;;7.47;;
46415;SDS011;32620;51.704;7.822;2023-08-08T02:00:15;12.48;;;10.82;;
46415;SDS011;32620;51.704;7.822;2023-08-08T02:02:41;15.45;;;11.50;;
46415;SDS011;32620;51.704;7.822;2023-08-08T02:05:07;20.08;;;15.55;;
46415;SDS011;32620;51.704;7.822;2023-08-08T02:07:32;22.17;;;17.58;;
46415;SDS011;32620;51.704;7.822;2023-08-08T02:09:58;19.35;;;16.65;;
46415;SDS011;32620;51.704;7.822;2023-08-08T02:12:23;20.48;;;16.63;;
46415;SDS011;32620;51.704;7.822;2023-08-08T02:14:49;20.65;;;15.95;;
46415;SDS011;32620;51.704;7.822;2023-08-08T02:17:14;21.73;;;17.13;;
46415;SDS011;32620;51.704;7.822;2023-08-08T02:19:40;25.73;;;19.45;;
46415;SDS011;32620;51.704;7.822;2023-08-08T02:22:05;30.40;;;22.20;;
46415;SDS011;32620;51.704;7.822;2023-08-08T02:24:31;34.28;;;24.20;;
46415;SDS011;32620;51.704;7.822;2023-08-08T02:26:56;33.40;;;23.70;;
46415;SDS011;32620;51.704;7.822;2023-08-08T02:29:22;25.67;;;22.10;;
46415;SDS011;32620;51.704;7.822;2023-08-08T02:31:47;23.42;;;20.08;;
46415;SDS011;32620;51.704;7.822;2023-08-08T02:34:13;25.35;;;21.58;;
46415;SDS011;32620;51.704;7.822;2023-08-08T02:36:38;29.85;;;23.50;;
46415;SDS011;32620;51.704;7.822;2023-08-08T02:39:04;29.63;;;23.70;;
46415;SDS011;32620;51.704;7.822;2023-08-08T02:41:29;33.03;;;25.02;;
46415;SDS011;32620;51.704;7.822;2023-08-08T02:43:55;37.55;;;24.80;;
46415;SDS011;32620;51.704;7.822;2023-08-08T02:46:20;30.60;;;22.98;;
46415;SDS011;32620;51.704;7.822;2023-08-08T02:48:46;31.80;;;22.60;;
46415;SDS011;32620;51.704;7.822;2023-08-08T02:51:11;26.73;;;21.42;;
46415;SDS011;32620;51.704;7.822;2023-08-08T02:53:37;35.30;;;23.75;;
46415;SDS011;32620;51.704;7.822;2023-08-08T02:56:03;31.35;;;22.20;;
46415;SDS011;32620;51.704;7.822;2023-08-08T02:58:28;35.08;;;23.30;;
46415;SDS011;32620;51.704;7.822;2023-08-08T03:00:54;31.83;;;22.33;;
46415;SDS011;32620;51.704;7.822;2023-08-08T03:03:19;30.67;;;19.65;;
46415;SDS011;32620;51.704;7.822;2023-08-08T03:05:45;35.90;;;20.50;;
46415;SDS011;32620;51.704;7.822;2023-08-08T03:08:11;32.40;;;20.65;;
46415;SDS011;32620;51.704;7.822;2023-08-08T03:10:37;23.88;;;16.50;;
46415;SDS011;32620;51.704;7.822;2023-08-08T03:13:02;26.35;;;16.40;;
46415;SDS011;32620;51.704;7.822;2023-08-08T03:15:28;28.23;;;16.15;;
46415;SDS011;32620;51.704;7.822;2023-08-08T03:17:54;21.52;;;13.45;;
46415;SDS011;32620;51.704;7.822;2023-08-08T03:20:20;19.40;;;11.90;;
46415;SDS011;32620;51.704;7.822;2023-08-08T03:22:46;18.70;;;12.02;;
46415;SDS011;32620;51.704;7.822;2023-08-08T03:25:11;20.48;;;11.05;;
46415;SDS011;32620;51.704;7.822;2023-08-08T03:27:37;16.50;;;11.18;;
46415;SDS011;32620;51.704;7.822;2023-08-08T03:30:02;15.20;;;10.75;;
46415;SDS011;32620;51.704;7.822;2023-08-08T03:32:28;17.85;;;10.43;;
46415;SDS011;32620;51.704;7.822;2023-08-08T03:34:54;15.05;;;9.70;;
46415;SDS011;32620;51.704;7.822;2023-08-08T03:37:19;15.43;;;10.32;;
46415;SDS011;32620;51.704;7.822;2023-08-08T03:39:45;14.05;;;9.82;;
46415;SDS011;32620;51.704;7.822;2023-08-08T03:42:10;21.17;;;11.35;;
46415;SDS011;32620;51.704;7.822;2023-08-08T03:44:36;18.83;;;10.77;;
46415;SDS011;32620;51.704;7.822;2023-08-08T03:47:01;21.65;;;10.68;;
46415;SDS011;32620;51.704;7.822;2023-08-08T03:49:27;19.20;;;9.90;;
46415;SDS011;32620;51.704;7.822;2023-08-08T03:51:53;19.70;;;10.95;;
46415;SDS011;32620;51.704;7.822;2023-08-08T03:54:18;14.73;;;9.45;;
46415;SDS011;32620;51.704;7.822;2023-08-08T03:56:44;19.38;;;9.63;;
46415;SDS011;32620;51.704;7.822;2023-08-08T03:59:09;12.90;;;9.10;;
46415;SDS011;32620;51.704;7.822;2023-08-08T04:01:35;14.48;;;8.82;;
46415;SDS011;32620;51.704;7.822;2023-08-08T04:04:02;14.73;;;8.35;;
46415;SDS011;32620;51.704;7.822;2023-08-08T04:06:29;13.60;;;8.50;;
46415;SDS011;32620;51.704;7.822;2023-08-08T04:08:54;13.43;;;8.38;;
46415;SDS011;32620;51.704;7.822;2023-08-08T04:11:20;19.02;;;8.13;;
46415;SDS011;32620;51.704;7.822;2023-08-08T04:13:45;16.10;;;7.82;;
46415;SDS011;32620;51.704;7.822;2023-08-08T04:16:11;16.33;;;8.20;;
46415;SDS011;32620;51.704;7.822;2023-08-08T04:18:36;16.63;;;8.05;;
46415;SDS011;32620;51.704;7.822;2023-08-08T04:21:02;17.17;;;7.95;;
46415;SDS011;32620;51.704;7.822;2023-08-08T04:23:27;13.80;;;8.05;;
46415;SDS011;32620;51.704;7.822;2023-08-08T04:25:53;16.02;;;9.25;;
46415;SDS011;32620;51.704;7.822;2023-08-08T04:28:19;16.35;;;8.55;;
46415;SDS011;32620;51.704;7.822;2023-08-08T04:30:44;16.40;;;8.43;;
46415;SDS011;32620;51.704;7.822;2023-08-08T04:33:10;18.02;;;8.85;;
46415;SDS011;32620;51.704;7.822;2023-08-08T04:35:35;15.00;;;8.98;;
46415;SDS011;32620;51.704;7.822;2023-08-08T04:38:01;18.00;;;9.45;;
46415;SDS011;32620;51.704;7.822;2023-08-08T04:40:26;20.98;;;9.77;;
46415;SDS011;32620;51.704;7.822;2023-08-08T04:42:52;16.05;;;8.65;;
46415;SDS011;32620;51.704;7.822;2023-08-08T04:45:18;16.63;;;8.55;;
46415;SDS011;32620;51.704;7.822;2023-08-08T04:47:43;16.00;;;9.30;;
46415;SDS011;32620;51.704;7.822;2023-08-08T04:50:09;21.67;;;9.77;;
46415;SDS011;32620;51.704;7.822;2023-08-08T04:52:35;15.45;;;9.35;;
46415;SDS011;32620;51.704;7.822;2023-08-08T04:55:01;19.70;;;10.10;;
46415;SDS011;32620;51.704;7.822;2023-08-08T04:57:26;14.65;;;9.80;;
46415;SDS011;32620;51.704;7.822;2023-08-08T04:59:52;19.65;;;10.32;;
46415;SDS011;32620;51.704;7.822;2023-08-08T05:02:18;18.13;;;9.48;;
46415;SDS011;32620;51.704;7.822;2023-08-08T05:04:43;17.85;;;9.60;;
46415;SDS011;32620;51.704;7.822;2023-08-08T05:07:09;21.98;;;9.48;;
46415;SDS011;32620;51.704;7.822;2023-08-08T05:09:34;19.40;;;10.05;;
46415;SDS011;32620;51.704;7.822;2023-08-08T05:12:00;18.88;;;10.40;;
46415;SDS011;32620;51.704;7.822;2023-08-08T05:14:26;20.98;;;11.32;;
46415;SDS011;32620;51.704;7.822;2023-08-08T05:16:51;22.15;;;11.02;;
46415;SDS011;32620;51.704;7.822;2023-08-08T05:19:17;19.40;;;10.40;;
46415;SDS011;32620;51.704;7.822;2023-08-08T05:21:42;18.45;;;11.32;;
46415;SDS011;32620;51.704;7.822;2023-08-08T05:24:08;20.23;;;12.45;;
46415;SDS011;32620;51.704;7.822;2023-08-08T05:26:33;24.88;;;13.88;;
46415;SDS011;32620;51.704;7.822;2023-08-08T05:28:59;27.17;;;13.23;;
46415;SDS011;32620;51.704;7.822;2023-08-08T05:31:24;23.92;;;14.63;;
46415;SDS011;32620;51.704;7.822;2023-08-08T05:33:50;29.65;;;13.90;;
46415;SDS011;32620;51.704;7.822;2023-08-08T05:36:15;24.10;;;15.32;;
46415;SDS011;32620;51.704;7.822;2023-08-08T05:38:41;24.95;;;14.88;;
46415;SDS011;32620;51.704;7.822;2023-08-08T05:41:06;28.75;;;14.75;;
46415;SDS011;32620;51.704;7.822;2023-08-08T05:43:32;26.98;;;16.85;;
46415;SDS011;32620;51.704;7.822;2023-08-08T05:45:58;27.10;;;15.27;;
46415;SDS011;32620;51.704;7.822;2023-08-08T05:48:24;35.00;;;18.63;;
46415;SDS011;32620;51.704;7.822;2023-08-08T05:50:49;28.58;;;18.70;;
46415;SDS011;32620;51.704;7.822;2023-08-08T05:53:15;36.42;;;17.85;;
46415;SDS011;32620;51.704;7.822;2023-08-08T05:55:41;33.88;;;18.95;;
46415;SDS011;32620;51.704;7.822;2023-08-08T05:58:07;33.90;;;19.80;;
46415;SDS011;32620;51.704;7.822;2023-08-08T06:00:33;33.13;;;19.55;;
46415;SDS011;32620;51.704;7.822;2023-08-08T06:02:59;36.28;;;19.98;;
46415;SDS011;32620;51.704;7.822;2023-08-08T06:05:25;30.95;;;20.67;;
46415;SDS011;32620;51.704;7.822;2023-08-08T06:07:51;33.60;;;20.08;;
46415;SDS011;32620;51.704;7.822;2023-08-08T06:10:16;41.92;;;21.55;;
46415;SDS011;32620;51.704;7.822;2023-08-08T06:12:42;36.67;;;21.73;;
46415;SDS011;32620;51.704;7.822;2023-08-08T06:15:07;40.67;;;21.98;;
46415;SDS011;32620;51.704;7.822;2023-08-08T06:17:33;37.65;;;20.00;;
46415;SDS011;32620;51.704;7.822;2023-08-08T06:19:59;37.95;;;22.77;;
46415;SDS011;32620;51.704;7.822;2023-08-08T06:22:24;38.22;;;21.00;;
46415;SDS011;32620;51.704;7.822;2023-08-08T06:24:50;40.03;;;22.80;;
46415;SDS011;32620;51.704;7.822;2023-08-08T06:27:16;39.80;;;22.92;;
46415;SDS011;32620;51.704;7.822;2023-08-08T06:29:42;39.42;;;22.67;;
46415;SDS011;32620;51.704;7.822;2023-08-08T06:32:07;40.25;;;23.95;;
46415;SDS011;32620;51.704;7.822;2023-08-08T06:34:33;45.55;;;24.45;;
46415;SDS011;32620;51.704;7.822;2023-08-08T06:36:58;41.90;;;24.20;;
46415;SDS011;32620;51.704;7.822;2023-08-08T06:39:24;40.15;;;24.05;;
46415;SDS011;32620;51.704;7.822;2023-08-08T06:41:50;43.80;;;24.48;;
46415;SDS011;32620;51.704;7.822;2023-08-08T06:44:15;45.38;;;25.80;;
46415;SDS011;32620;51.704;7.822;2023-08-08T06:46:41;41.13;;;26.05;;
46415;SDS011;32620;51.704;7.822;2023-08-08T06:49:07;49.35;;;25.85;;
46415;SDS011;32620;51.704;7.822;2023-08-08T06:51:33;38.67;;;24.83;;
46415;SDS011;32620;51.704;7.822;2023-08-08T06:54:00;44.88;;;25.77;;
46415;SDS011;32620;51.704;7.822;2023-08-08T06:56:25;45.72;;;26.55;;
46415;SDS011;32620;51.704;7.822;2023-08-08T06:58:51;47.13;;;27.35;;
46415;SDS011;32620;51.704;7.822;2023-08-08T07:01:17;45.83;;;25.85;;
46415;SDS011;32620;51.704;7.822;2023-08-08T07:03:43;49.03;;;26.80;;
46415;SDS011;32620;51.704;7.822;2023-08-08T07:06:09;55.60;;;28.50;;
46415;SDS011;32620;51.704;7.822;2023-08-08T07:08:35;44.25;;;28.02;;
46415;SDS011;32620;51.704;7.822;2023-08-08T07:11:02;45.13;;;28.45;;
46415;SDS011;32620;51.704;7.822;2023-08-08T07:13:27;44.03;;;28.08;;
46415;SDS011;32620;51.704;7.822;2023-08-08T07:15:53;45.65;;;29.17;;
46415;SDS011;32620;51.704;7.822;2023-08-08T07:18:18;47.83;;;31.00;;
46415;SDS011;32620;51.704;7.822;2023-08-08T07:20:44;51.95;;;28.75;;
46415;SDS011;32620;51.704;7.822;2023-08-08T07:23:09;46.00;;;28.42;;
46415;SDS011;32620;51.704;7.822;2023-08-08T07:25:35;43.72;;;27.70;;
46415;SDS011;32620;51.704;7.822;2023-08-08T07:28:00;47.15;;;26.77;;
46415;SDS011;32620;51.704;7.822;2023-08-08T07:30:26;38.60;;;26.40;;
46415;SDS011;32620;51.704;7.822;2023-08-08T07:32:52;41.45;;;28.45;;
46415;SDS011;32620;51.704;7.822;2023-08-08T07:35:17;41.72;;;26.92;;
46415;SDS011;32620;51.704;7.822;2023-08-08T07:37:43;42.30;;;27.10;;
46415;SDS011;32620;51.704;7.822;2023-08-08T07:45:19;46.72;;;27.30;;
46415;SDS011;32620;51.704;7.822;2023-08-08T07:52:51;35.30;;;24.73;;
46415;SDS011;32620;51.704;7.822;2023-08-08T07:55:17;33.83;;;25.52;;
46415;SDS011;32620;51.704;7.822;2023-08-08T07:57:42;35.13;;;24.02;;
46415;SDS011;32620;51.704;7.822;2023-08-08T08:00:08;32.00;;;23.60;;
46415;SDS011;32620;51.704;7.822;2023-08-08T08:02:36;37.92;;;24.40;;
46415;SDS011;32620;51.704;7.822;2023-08-08T08:05:02;33.65;;;23.38;;
46415;SDS011;32620;51.704;7.822;2023-08-08T08:07:30;31.92;;;24.65;;
46415;SDS011;32620;51.704;7.822;2023-08-08T08:09:57;34.78;;;23.13;;
46415;SDS011;32620;51.704;7.822;2023-08-08T08:12:22;30.33;;;23.00;;
46415;SDS011;32620;51.704;7.822;2023-08-08T08:14:48;26.60;;;19.60;;
46415;SDS011;32620;51.704;7.822;2023-08-08T08:17:13;33.60;;;20.70;;
46415;SDS011;32620;51.704;7.822;2023-08-08T08:19:39;28.73;;;19.30;;
46415;SDS011;32620;51.704;7.822;2023-08-08T08:22:05;28.58;;;19.15;;
46415;SDS011;32620;51.704;7.822;2023-08-08T08:24:30;29.30;;;18.70;;
46415;SDS011;32620;51.704;7.822;2023-08-08T08:26:56;29.13;;;18.48;;
46415;SDS011;32620;51.704;7.822;2023-08-08T08:29:21;31.50;;;18.83;;
46415;SDS011;32620;51.704;7.822;2023-08-08T08:31:47;25.75;;;18.02;;
46415;SDS011;32620;51.704;7.822;2023-08-08T08:34:12;26.35;;;16.35;;
46415;SDS011;32620;51.704;7.822;2023-08-08T08:36:38;26.70;;;15.23;;
46415;SDS011;32620;51.704;7.822;2023-08-08T08:39:03;17.92;;;13.30;;
46415;SDS011;32620;51.704;7.822;2023-08-08T08:41:29;19.85;;;13.00;;
46415;SDS011;32620;51.704;7.822;2023-08-08T08:44:00;21.00;;;12.48;;
46415;SDS011;32620;51.704;7.822;2023-08-08T08:46:26;21.42;;;12.80;;
46415;SDS011;32620;51.704;7.822;2023-08-08T08:48:54;18.35;;;13.05;;
46415;SDS011;32620;51.704;7.822;2023-08-08T08:51:21;16.75;;;11.05;;
46415;SDS011;32620;51.704;7.822;2023-08-08T08:53:47;15.20;;;11.23;;
46415;SDS011;32620;51.704;7.822;2023-08-08T08:56:14;18.90;;;11.63;;
46415;SDS011;32620;51.704;7.822;2023-08-08T08:58:41;17.20;;;10.77;;
46415;SDS011;32620;51.704;7.822;2023-08-08T09:01:07;20.45;;;10.75;;
46415;SDS011;32620;51.704;7.822;2023-08-08T09:03:35;19.10;;;9.90;;
46415;SDS011;32620;51.704;7.822;2023-08-08T09:06:01;21.10;;;9.30;;
46415;SDS011;32620;51.704;7.822;2023-08-08T09:08:29;10.95;;;7.57;;
46415;SDS011;32620;51.704;7.822;2023-08-08T09:10:55;14.07;;;7.15;;
46415;SDS011;32620;51.704;7.822;2023-08-08T09:13:21;12.23;;;7.18;;
46415;SDS011;32620;51.704;7.822;2023-08-08T09:15:48;12.27;;;7.53;;
46415;SDS011;32620;51.704;7.822;2023-08-08T09:18:14;16.63;;;7.60;;
46415;SDS011;32620;51.704;7.822;2023-08-08T09:20:40;14.30;;;8.23;;
46415;SDS011;32620;51.704;7.822;2023-08-08T09:23:05;16.83;;;9.05;;
46415;SDS011;32620;51.704;7.822;2023-08-08T09:25:31;16.02;;;9.27;;
46415;SDS011;32620;51.704;7.822;2023-08-08T09:27:56;18.42;;;9.63;;
46415;SDS011;32620;51.704;7.822;2023-08-08T09:30:22;20.10;;;12.77;;
46415;SDS011;32620;51.704;7.822;2023-08-08T09:32:48;14.23;;;11.07;;
46415;SDS011;32620;51.704;7.822;2023-08-08T09:35:13;15.98;;;10.15;;
46415;SDS011;32620;51.704;7.822;2023-08-08T09:37:39;13.10;;;8.50;;
46415;SDS011;32620;51.704;7.822;2023-08-08T09:40:05;12.50;;;7.60;;
46415;SDS011;32620;51.704;7.822;2023-08-08T09:42:33;11.68;;;7.65;;
46415;SDS011;32620;51.704;7.822;2023-08-08T09:45:00;13.02;;;6.57;;
46415;SDS011;32620;51.704;7.822;2023-08-08T09:47:25;10.13;;;5.32;;
46415;SDS011;32620;51.704;7.822;2023-08-08T09:49:59;14.45;;;5.47;;
46415;SDS011;32620;51.704;7.822;2023-08-08T09:52:27;8.98;;;4.55;;
46415;SDS011;32620;51.704;7.822;2023-08-08T09:54:54;8.75;;;4.30;;
46415;SDS011;32620;51.704;7.822;2023-08-08T09:57:21;8.27;;;3.80;;
46415;SDS011;32620;51.704;7.822;2023-08-08T09:59:47;7.45;;;3.60;;
46415;SDS011;32620;51.704;7.822;2023-08-08T10:02:16;8.00;;;3.55;;
46415;SDS011;32620;51.704;7.822;2023-08-08T10:04:43;10.75;;;4.03;;
46415;SDS011;32620;51.704;7.822;2023-08-08T10:07:10;7.07;;;3.20;;
46415;SDS011;32620;51.704;7.822;2023-08-08T10:09:36;7.03;;;2.75;;
46415;SDS011;32620;51.704;7.822;2023-08-08T10:12:03;12.25;;;3.63;;
46415;SDS011;32620;51.704;7.822;2023-08-08T10:14:31;5.47;;;3.10;;
46415;SDS011;32620;51.704;7.822;2023-08-08T10:17:01;5.93;;;2.72;;
46415;SDS011;32620;51.704;7.822;2023-08-08T10:19:28;6.57;;;2.90;;
46415;SDS011;32620;51.704;7.822;2023-08-08T10:21:56;6.78;;;3.38;;
46415;SDS011;32620;51.704;7.822;2023-08-08T10:24:23;8.70;;;2.50;;
46415;SDS011;32620;51.704;7.822;2023-08-08T10:26:52;8.50;;;2.97;;
46415;SDS011;32620;51.704;7.822;2023-08-08T10:29:19;4.97;;;2.28;;
46415;SDS011;32620;51.704;7.822;2023-08-08T10:31:53;4.75;;;2.13;;
46415;SDS011;32620;51.704;7.822;2023-08-08T10:34:27;6.00;;;2.63;;
46415;SDS011;32620;51.704;7.822;2023-08-08T10:37:10;7.70;;;2.75;;
46415;SDS011;32620;51.704;7.822;2023-08-08T10:39:37;4.78;;;2.80;;
46415;SDS011;32620;51.704;7.822;2023-08-08T10:42:17;6.28;;;2.80;;
46415;SDS011;32620;51.704;7.822;2023-08-08T10:44:50;5.38;;;2.40;;
46415;SDS011;32620;51.704;7.822;2023-08-08T10:47:22;4.75;;;2.75;;
46415;SDS011;32620;51.704;7.822;2023-08-08T10:49:57;7.53;;;3.40;;
46415;SDS011;32620;51.704;7.822;2023-08-08T10:52:28;5.07;;;2.05;;
46415;SDS011;32620;51.704;7.822;2023-08-08T10:54:54;7.50;;;2.10;;
46415;SDS011;32620;51.704;7.822;2023-08-08T10:57:23;5.60;;;2.20;;
46415;SDS011;32620;51.704;7.822;2023-08-08T10:59:49;4.68;;;1.98;;
46415;SDS011;32620;51.704;7.822;2023-08-08T11:02:15;5.70;;;2.70;;
46415;SDS011;32620;51.704;7.822;2023-08-08T11:04:42;4.45;;;1.95;;
46415;SDS011;32620;51.704;7.822;2023-08-08T11:07:08;6.72;;;2.55;;
46415;SDS011;32620;51.704;7.822;2023-08-08T11:09:34;10.48;;;3.20;;
46415;SDS011;32620;51.704;7.822;2023-08-08T11:11:59;8.90;;;2.63;;
46415;SDS011;32620;51.704;7.822;2023-08-08T11:14:25;5.93;;;2.17;;
46415;SDS011;32620;51.704;7.822;2023-08-08T11:16:51;5.03;;;2.28;;
46415;SDS011;32620;51.704;7.822;2023-08-08T11:19:17;5.65;;;2.30;;
46415;SDS011;32620;51.704;7.822;2023-08-08T11:21:45;7.25;;;2.40;;
46415;SDS011;32620;51.704;7.822;2023-08-08T11:24:12;7.43;;;3.00;;
46415;SDS011;32620;51.704;7.822;2023-08-08T11:26:39;6.63;;;2.80;;
46415;SDS011;32620;51.704;7.822;2023-08-08T11:29:06;9.32;;;2.92;;
46415;SDS011;32620;51.704;7.822;2023-08-08T11:31:33;10.48;;;3.47;;
46415;SDS011;32620;51.704;7.822;2023-08-08T11:33:59;7.75;;;3.05;;
46415;SDS011;32620;51.704;7.822;2023-08-08T11:36:26;8.80;;;3.42;;
46415;SDS011;32620;51.704;7.822;2023-08-08T11:38:55;11.60;;;3.50;;
46415;SDS011;32620;51.704;7.822;2023-08-08T11:41:22;8.65;;;3.35;;
46415;SDS011;32620;51.704;7.822;2023-08-08T11:43:50;9.13;;;3.28;;
46415;SDS011;32620;51.704;7.822;2023-08-08T11:46:16;8.27;;;4.57;;
46415;SDS011;32620;51.704;7.822;2023-08-08T11:48:43;6.60;;;2.80;;
46415;SDS011;32620;51.704;7.822;2023-08-08T11:51:13;8.77;;;3.65;;
46415;SDS011;32620;51.704;7.822;2023-08-08T11:53:55;10.90;;;3.60;;
46415;SDS011;32620;51.704;7.822;2023-08-08T11:56:21;7.57;;;3.53;;
46415;SDS011;32620;51.704;7.822;2023-08-08T11:58:47;9.15;;;4.25;;
46415;SDS011;32620;51.704;7.822;2023-08-08T12:01:19;8.50;;;3.70;;
46415;SDS011;32620;51.704;7.822;2023-08-08T12:03:45;8.40;;;3.22;;
46415;SDS011;32620;51.704;7.822;2023-08-08T12:06:12;11.25;;;3.42;;
46415;SDS011;32620;51.704;7.822;2023-08-08T12:08:40;8.85;;;3.03;;
46415;SDS011;32620;51.704;7.822;2023-08-08T12:11:09;4.63;;;2.60;;
46415;SDS011;32620;51.704;7.822;2023-08-08T12:13:37;8.43;;;3.33;;
46415;SDS011;32620;51.704;7.822;2023-08-08T12:16:05;7.82;;;3.30;;
46415;SDS011;32620;51.704;7.822;2023-08-08T12:18:32;7.50;;;3.20;;
46415;SDS011;32620;51.704;7.822;2023-08-08T12:20:59;10.63;;;4.68;;
46415;SDS011;32620;51.704;7.822;2023-08-08T12:23:26;9.90;;;4.07;;
46415;SDS011;32620;51.704;7.822;2023-08-08T12:25:52;10.48;;;4.15;;
46415;SDS011;32620;51.704;7.822;2023-08-08T12:28:18;8.50;;;3.40;;
46415;SDS011;32620;51.704;7.822;2023-08-08T12:30:44;6.75;;;3.15;;
46415;SDS011;32620;51.704;7.822;2023-08-08T12:33:10;8.40;;;3.17;;
46415;SDS011;32620;51.704;7.822;2023-08-08T12:35:35;9.18;;;3.58;;
46415;SDS011;32620;51.704;7.822;2023-08-08T12:38:01;11.13;;;3.70;;
46415;SDS011;32620;51.704;7.822;2023-08-08T12:40:28;10.52;;;3.97;;
46415;SDS011;32620;51.704;7.822;2023-08-08T12:42:54;6.88;;;2.95;;
46415;SDS011;32620;51.704;7.822;2023-08-08T12:45:20;10.00;;;3.00;;
46415;SDS011;32620;51.704;7.822;2023-08-08T12:47:46;5.82;;;2.33;;
46415;SDS011;32620;51.704;7.822;2023-08-08T12:50:12;7.38;;;2.22;;
46415;SDS011;32620;51.704;7.822;2023-08-08T12:52:37;4.72;;;2.30;;
46415;SDS011;32620;51.704;7.822;2023-08-08T12:55:04;2.85;;;2.05;;
46415;SDS011;32620;51.704;7.822;2023-08-08T12:57:31;5.38;;;2.20;;
46415;SDS011;32620;51.704;7.822;2023-08-08T12:59:57;3.80;;;1.55;;
46415;SDS011;32620;51.704;7.822;2023-08-08T13:02:22;8.15;;;2.00;;
46415;SDS011;32620;51.704;7.822;2023-08-08T13:04:48;4.55;;;2.20;;
46415;SDS011;32620;51.704;7.822;2023-08-08T13:07:14;4.75;;;2.40;;
46415;SDS011;32620;51.704;7.822;2023-08-08T13:09:39;7.72;;;2.90;;
46415;SDS011;32620;51.704;7.822;2023-08-08T13:12:05;4.53;;;2.35;;
46415;SDS011;32620;51.704;7.822;2023-08-08T13:14:31;5.40;;;3.00;;
46415;SDS011;32620;51.704;7.822;2023-08-08T13:16:58;8.70;;;6.43;;
46415;SDS011;32620;51.704;7.822;2023-08-08T13:19:24;8.02;;;2.80;;
46415;SDS011;32620;51.704;7.822;2023-08-08T13:21:51;8.75;;;2.90;;
46415;SDS011;32620;51.704;7.822;2023-08-08T13:24:17;6.57;;;2.63;;
46415;SDS011;32620;51.704;7.822;2023-08-08T13:26:43;7.65;;;2.97;;
46415;SDS011;32620;51.704;7.822;2023-08-08T13:29:09;8.05;;;2.70;;
46415;SDS011;32620;51.704;7.822;2023-08-08T13:31:36;3.30;;;2.40;;
46415;SDS011;32620;51.704;7.822;2023-08-08T13:34:02;4.28;;;2.60;;
46415;SDS011;32620;51.704;7.822;2023-08-08T13:36:28;3.08;;;2.33;;
46415;SDS011;32620;51.704;7.822;2023-08-08T13:38:54;4.50;;;1.77;;
46415;SDS011;32620;51.704;7.822;2023-08-08T13:41:20;4.68;;;1.90;;
46415;SDS011;32620;51.704;7.822;2023-08-08T13:43:45;4.07;;;1.80;;
46415;SDS011;32620;51.704;7.822;2023-08-08T13:46:11;4.75;;;2.00;;
46415;SDS011;32620;51.704;7.822;2023-08-08T13:48:37;6.53;;;1.80;;
46415;SDS011;32620;51.704;7.822;2023-08-08T13:51:03;9.07;;;1.90;;
46415;SDS011;32620;51.704;7.822;2023-08-08T13:53:29;6.15;;;1.80;;
46415;SDS011;32620;51.704;7.822;2023-08-08T13:55:55;3.92;;;2.30;;
46415;SDS011;32620;51.704;7.822;2023-08-08T13:58:20;4.78;;;2.20;;
46415;SDS011;32620;51.704;7.822;2023-08-08T14:00:47;4.90;;;1.92;;
46415;SDS011;32620;51.704;7.822;2023-08-08T14:03:14;5.88;;;1.98;;
46415;SDS011;32620;51.704;7.822;2023-08-08T14:05:40;8.32;;;2.28;;
46415;SDS011;32620;51.704;7.822;2023-08-08T14:08:05;8.23;;;1.92;;
46415;SDS011;32620;51.704;7.822;2023-08-08T14:10:31;4.07;;;1.98;;
46415;SDS011;32620;51.704;7.822;2023-08-08T14:12:57;4.57;;;1.80;;
46415;SDS011;32620;51.704;7.822;2023-08-08T14:15:23;2.92;;;1.60;;
46415;SDS011;32620;51.704;7.822;2023-08-08T14:17:49;5.47;;;1.80;;
46415;SDS011;32620;51.704;7.822;2023-08-08T14:20:15;6.13;;;1.77;;
46415;SDS011;32620;51.704;7.822;2023-08-08T14:22:43;5.50;;;2.03;;
46415;SDS011;32620;51.704;7.822;2023-08-08T14:25:11;3.35;;;1.65;;
46415;SDS011;32620;51.704;7.822;2023-08-08T14:27:37;3.17;;;1.80;;
46415;SDS011;32620;51.704;7.822;2023-08-08T14:30:03;5.18;;;1.95;;
46415;SDS011;32620;51.704;7.822;2023-08-08T14:32:29;2.67;;;2.08;;
46415;SDS011;32620;51.704;7.822;2023-08-08T14:34:55;3.50;;;1.95;;
46415;SDS011;32620;51.704;7.822;2023-08-08T14:37:21;3.47;;;2.00;;